createdAt,value
2019-01-06T00:01:50.891Z,1.37
2019-01-06T00:04:30.300Z,1.37
2019-01-06T00:07:17.357Z,0.77
2019-01-06T00:09:53.965Z,1.33
2019-01-06T00:12:30.061Z,0.90
2019-01-06T00:15:03.681Z,1.00
2019-01-06T00:17:40.373Z,0.77
2019-01-06T00:20:16.905Z,1.00
2019-01-06T00:22:53.491Z,1.00
2019-01-06T00:25:24.159Z,1.00
2019-01-06T00:27:54.674Z,1.10
2019-01-06T00:30:41.490Z,0.80
2019-01-06T00:33:21.019Z,1.23
2019-01-06T00:35:51.707Z,1.00
2019-01-06T00:38:41.125Z,1.00
2019-01-06T00:41:24.301Z,1.00
2019-01-06T00:44:06.493Z,0.90
2019-01-06T00:46:49.864Z,1.20
2019-01-06T00:49:20.350Z,0.80
2019-01-06T00:51:56.942Z,0.80
2019-01-06T00:54:33.408Z,0.90
2019-01-06T00:57:16.902Z,1.20
2019-01-06T00:59:47.775Z,1.23
2019-01-06T01:02:18.657Z,1.00
2019-01-06T01:04:49.557Z,1.00
2019-01-06T01:07:26.564Z,1.00
2019-01-06T01:10:13.789Z,0.93
2019-01-06T01:12:47.660Z,0.80
2019-01-06T01:18:09.499Z,1.30
2019-01-06T01:20:46.660Z,1.33
2019-01-06T01:23:34.352Z,0.93
2019-01-06T01:26:21.279Z,1.10
2019-01-06T01:28:51.834Z,1.40
2019-01-06T01:31:35.083Z,0.80
2019-01-06T01:34:09.077Z,1.20
2019-01-06T01:36:39.671Z,1.10
2019-01-06T01:39:10.207Z,1.10
2019-01-06T01:41:57.540Z,1.00
2019-01-06T01:44:31.591Z,1.10
2019-01-06T01:47:02.195Z,1.20
2019-01-06T01:49:51.599Z,1.73
2019-01-06T01:52:25.269Z,1.33
2019-01-06T01:55:11.811Z,1.00
2019-01-06T01:57:59.964Z,1.40
2019-01-06T02:00:36.538Z,1.40
2019-01-06T02:03:23.532Z,1.20
2019-01-06T02:06:03.379Z,1.23
2019-01-06T02:08:42.991Z,1.40
2019-01-06T02:11:21.018Z,1.20
2019-01-06T02:14:00.448Z,1.30
2019-01-06T02:16:37.181Z,1.27
2019-01-06T02:19:26.501Z,1.10
2019-01-06T02:25:02.250Z,1.17
2019-01-06T02:27:38.663Z,1.13
2019-01-06T02:30:25.296Z,1.07
2019-01-06T02:33:04.703Z,1.30
2019-01-06T02:35:41.560Z,1.10
2019-01-06T02:38:17.117Z,1.17
2019-01-06T02:41:04.634Z,0.93
2019-01-06T02:43:52.093Z,1.23
2019-01-06T02:46:32.677Z,0.93
2019-01-06T02:49:03.328Z,0.90
2019-01-06T02:51:37.290Z,1.10
2019-01-06T02:54:16.774Z,1.20
2019-01-06T02:56:59.656Z,1.13
2019-01-06T02:59:45.565Z,1.60
2019-01-06T03:02:32.600Z,1.07
2019-01-06T03:05:06.248Z,1.30
2019-01-06T03:07:39.995Z,1.07
2019-01-06T03:10:42.708Z,1.00
2019-01-06T03:13:13.279Z,0.90
2019-01-06T03:15:49.649Z,1.47
2019-01-06T03:18:23.324Z,1.33
2019-01-06T03:21:10.538Z,1.30
2019-01-06T03:23:41.398Z,1.10
2019-01-06T03:26:21.125Z,1.43
2019-01-06T03:29:02.094Z,1.20
2019-01-06T03:31:49.476Z,1.53
2019-01-06T03:34:20.201Z,1.50
2019-01-06T03:37:07.295Z,1.27
2019-01-06T03:39:44.895Z,0.97
2019-01-06T03:42:28.673Z,1.43
2019-01-06T03:44:59.468Z,1.50
2019-01-06T03:47:46.502Z,0.90
2019-01-06T03:50:20.574Z,1.50
2019-01-06T03:52:54.552Z,1.50
2019-01-06T03:55:42.981Z,1.37
2019-01-06T03:58:16.805Z,1.03
2019-01-06T04:00:50.872Z,1.50
2019-01-06T04:03:38.106Z,1.60
2019-01-06T04:06:28.433Z,1.40
2019-01-06T04:08:59.243Z,1.37
2019-01-06T04:11:46.605Z,1.60
2019-01-06T04:14:22.921Z,1.43
2019-01-06T04:17:10.312Z,1.40
2019-01-06T04:19:57.314Z,1.50
2019-01-06T04:22:27.842Z,1.20
2019-01-06T04:25:13.968Z,1.73
2019-01-06T04:27:44.703Z,1.90
2019-01-06T04:30:18.496Z,1.70
2019-01-06T04:32:52.437Z,1.97
2019-01-06T04:35:58.448Z,1.90
2019-01-06T04:38:46.709Z,1.53
2019-01-06T04:41:26.706Z,1.63
2019-01-06T04:44:00.246Z,1.63
2019-01-06T04:46:47.850Z,1.40
2019-01-06T04:49:21.581Z,1.47
2019-01-06T04:52:05.246Z,1.70
2019-01-06T04:54:35.749Z,1.70
2019-01-06T04:57:08.663Z,1.67
2019-01-06T04:59:39.359Z,1.97
2019-01-06T05:02:12.599Z,2.07
2019-01-06T05:05:00.005Z,1.60
2019-01-06T05:07:45.985Z,1.93
2019-01-06T05:10:16.648Z,1.73
2019-01-06T05:13:06.044Z,2.03
2019-01-06T05:15:50.577Z,2.10
2019-01-06T05:18:30.070Z,1.37
2019-01-06T05:21:03.563Z,2.07
2019-01-06T05:23:39.926Z,1.97
2019-01-06T05:26:16.821Z,2.10
2019-01-06T05:28:53.836Z,2.00
2019-01-06T05:31:33.661Z,1.77
2019-01-06T05:34:09.690Z,2.10
2019-01-06T05:36:47.085Z,1.90
2019-01-06T05:39:17.797Z,1.90
2019-01-06T05:41:51.286Z,1.53
2019-01-06T05:44:38.727Z,2.10
2019-01-06T05:47:24.956Z,2.90
2019-01-06T05:50:13.746Z,2.00
2019-01-06T05:52:47.038Z,2.20
2019-01-06T05:55:23.267Z,1.90
2019-01-06T05:58:08.995Z,2.50
2019-01-06T06:00:39.480Z,2.20
2019-01-06T06:03:26.297Z,2.10
2019-01-06T06:06:02.910Z,2.37
2019-01-06T06:08:39.973Z,2.00
2019-01-06T06:11:10.449Z,1.97
2019-01-06T06:16:42.775Z,1.70
2019-01-06T06:19:31.243Z,2.17
2019-01-06T06:22:11.474Z,2.10
2019-01-06T06:24:42.050Z,1.70
2019-01-06T06:27:15.798Z,2.13
2019-01-06T06:29:46.253Z,2.00
2019-01-06T06:32:17.024Z,1.87
2019-01-06T06:34:50.596Z,2.40
2019-01-06T06:37:21.310Z,2.07
2019-01-06T06:40:15.104Z,1.80
2019-01-06T06:42:46.444Z,2.30
2019-01-06T06:45:19.760Z,2.30
2019-01-06T06:48:02.937Z,2.10
2019-01-06T06:50:49.247Z,2.47
2019-01-06T06:53:36.064Z,2.43
2019-01-06T06:58:56.568Z,2.60
2019-01-06T07:01:46.381Z,2.97
2019-01-06T07:04:19.921Z,2.73
2019-01-06T07:09:54.212Z,2.20
2019-01-06T07:12:27.444Z,2.07
2019-01-06T07:15:27.204Z,2.17
2019-01-06T07:18:03.671Z,2.43
2019-01-06T07:20:50.805Z,2.53
2019-01-06T07:23:27.327Z,2.67
2019-01-06T07:26:14.153Z,2.30
2019-01-06T07:28:51.439Z,2.23
2019-01-06T07:31:31.699Z,2.30
2019-01-06T07:34:02.485Z,2.63
2019-01-06T07:36:32.754Z,2.40
2019-01-06T07:39:06.828Z,2.07
2019-01-06T07:41:55.525Z,2.53
2019-01-06T07:44:29.003Z,2.67
2019-01-06T07:47:15.076Z,2.20
2019-01-06T07:50:00.090Z,2.50
2019-01-06T07:52:46.988Z,2.43
2019-01-06T07:55:26.785Z,2.30
2019-01-06T07:58:00.436Z,2.63
2019-01-06T08:00:37.320Z,2.03
2019-01-06T08:03:17.451Z,2.50
2019-01-06T08:08:49.809Z,2.70
2019-01-06T08:11:37.399Z,2.73
2019-01-06T08:14:14.259Z,2.17
2019-01-06T08:17:01.440Z,2.63
2019-01-06T08:19:32.292Z,2.03
2019-01-06T08:22:10.548Z,2.63
2019-01-06T08:24:50.370Z,2.27
2019-01-06T08:27:23.988Z,2.60
2019-01-06T08:30:06.982Z,2.73
2019-01-06T08:32:43.475Z,2.20
2019-01-06T08:35:33.296Z,2.67
2019-01-06T08:38:13.147Z,2.67
2019-01-06T08:40:47.109Z,3.50
2019-01-06T08:43:23.645Z,2.77
2019-01-06T08:46:11.029Z,2.70
2019-01-06T08:48:54.328Z,2.17
2019-01-06T08:51:25.060Z,2.43
2019-01-06T08:54:08.219Z,2.60
2019-01-06T08:56:54.784Z,2.67
2019-01-06T08:59:34.108Z,2.63
2019-01-06T09:02:04.901Z,2.77
2019-01-06T09:04:35.442Z,2.43
2019-01-06T09:10:22.286Z,2.47
2019-01-06T09:13:02.593Z,2.60
2019-01-06T09:15:45.995Z,3.00
2019-01-06T09:18:22.613Z,2.90
2019-01-06T09:20:56.487Z,2.53
2019-01-06T09:23:32.579Z,2.40
2019-01-06T09:26:09.233Z,2.73
2019-01-06T09:28:39.779Z,2.90
2019-01-06T09:31:26.598Z,2.57
2019-01-06T09:34:25.810Z,2.40
2019-01-06T09:37:05.735Z,3.00
2019-01-06T09:39:52.176Z,2.77
2019-01-06T09:45:27.895Z,2.30
2019-01-06T09:48:04.875Z,2.33
2019-01-06T09:50:48.001Z,2.17
2019-01-06T09:53:21.485Z,2.57
2019-01-06T09:56:09.190Z,2.00
2019-01-06T09:58:57.721Z,2.20
2019-01-06T10:01:31.674Z,2.50
2019-01-06T10:04:10.973Z,2.30
2019-01-06T10:09:48.614Z,2.40
2019-01-06T10:12:34.932Z,2.33
2019-01-06T10:15:09.101Z,1.80
2019-01-06T10:20:39.014Z,2.00
2019-01-06T10:23:24.984Z,2.40
2019-01-06T10:25:56.163Z,2.27
2019-01-06T10:28:51.474Z,2.27
2019-01-06T10:31:33.785Z,2.33
2019-01-06T10:37:04.741Z,2.23
2019-01-06T10:39:38.484Z,2.20
2019-01-06T10:42:09.133Z,2.40
2019-01-06T10:44:44.464Z,2.10
2019-01-06T10:47:21.233Z,2.03
2019-01-06T10:50:23.291Z,2.50
2019-01-06T10:55:59.339Z,3.53
2019-01-06T10:58:42.573Z,2.53
2019-01-06T11:01:31.326Z,2.47
2019-01-06T11:04:18.398Z,2.40
2019-01-06T11:06:49.969Z,1.70
2019-01-06T11:09:36.823Z,1.67
2019-01-06T11:12:23.796Z,1.80
2019-01-06T11:15:00.516Z,2.03
2019-01-06T11:17:47.711Z,2.17
2019-01-06T11:20:34.573Z,2.00
2019-01-06T11:23:11.316Z,1.90
2019-01-06T11:28:36.757Z,1.97
2019-01-06T11:31:24.331Z,2.03
2019-01-06T11:34:15.959Z,2.53
2019-01-06T11:36:58.667Z,2.53
2019-01-06T11:42:21.950Z,2.60
2019-01-06T11:45:08.586Z,2.60
2019-01-06T11:47:45.429Z,3.20
2019-01-06T11:50:15.970Z,2.67
2019-01-06T11:52:48.312Z,2.87
2019-01-06T11:55:21.775Z,2.53
2019-01-06T11:57:52.619Z,3.20
2019-01-06T12:00:39.868Z,2.93
2019-01-06T12:03:10.617Z,2.93
2019-01-06T12:05:47.160Z,3.43
2019-01-06T12:08:23.912Z,3.20
2019-01-06T12:11:11.259Z,4.13
2019-01-06T12:13:41.973Z,3.23
2019-01-06T12:16:15.396Z,3.40
2019-01-06T12:18:46.073Z,2.97
2019-01-06T12:21:19.873Z,4.27
2019-01-06T12:24:06.567Z,3.43
2019-01-06T12:26:45.885Z,3.60
2019-01-06T12:29:28.463Z,3.50
2019-01-06T12:32:02.097Z,3.60
2019-01-06T12:34:32.472Z,3.30
2019-01-06T12:37:02.973Z,3.40
2019-01-06T12:39:39.697Z,3.37
2019-01-06T12:42:26.100Z,2.80
2019-01-06T12:45:03.052Z,3.83
2019-01-06T12:47:36.669Z,3.60
2019-01-06T12:50:15.542Z,3.23
2019-01-06T12:52:52.551Z,3.53
2019-01-06T12:55:29.251Z,3.20
2019-01-06T12:58:05.894Z,3.87
2019-01-06T13:00:48.722Z,4.10
2019-01-06T13:03:22.219Z,3.57
2019-01-06T13:06:05.421Z,3.50
2019-01-06T13:08:37.171Z,3.13
2019-01-06T13:11:13.847Z,2.83
2019-01-06T13:13:44.216Z,3.50
2019-01-06T13:16:31.528Z,3.13
2019-01-06T13:19:17.967Z,2.77
2019-01-06T13:22:05.313Z,2.80
2019-01-06T13:24:45.282Z,2.83
2019-01-06T13:27:21.889Z,3.47
2019-01-06T13:29:55.583Z,3.10
2019-01-06T13:32:38.843Z,3.73
2019-01-06T13:35:12.341Z,2.90
2019-01-06T13:37:46.123Z,2.83
2019-01-06T13:40:28.735Z,2.87
2019-01-06T13:42:59.363Z,2.90
2019-01-06T13:45:39.191Z,3.07
2019-01-06T13:48:22.276Z,2.90
2019-01-06T13:50:59.664Z,2.03
2019-01-06T13:53:32.916Z,2.23
2019-01-06T13:56:03.652Z,2.80
2019-01-06T13:58:52.425Z,2.57
2019-01-06T14:01:36.706Z,2.80
2019-01-06T14:04:10.477Z,2.23
2019-01-06T14:06:57.280Z,2.60
2019-01-06T14:09:33.847Z,3.03
2019-01-06T14:12:07.371Z,2.23
2019-01-06T14:14:43.505Z,2.47
2019-01-06T14:17:16.706Z,2.67
2019-01-06T14:20:03.766Z,2.70
2019-01-06T14:22:50.769Z,2.13
2019-01-06T14:25:21.539Z,3.10
2019-01-06T14:27:54.989Z,2.30
2019-01-06T14:30:41.085Z,2.47
2019-01-06T14:36:10.887Z,2.53
2019-01-06T14:38:53.525Z,2.90
2019-01-06T14:41:24.174Z,3.07
2019-01-06T14:44:16.089Z,3.00
2019-01-06T14:47:03.994Z,2.27
2019-01-06T14:49:34.537Z,3.10
2019-01-06T14:52:21.691Z,2.60
2019-01-06T14:54:52.428Z,2.17
2019-01-06T14:57:26.584Z,2.60
2019-01-06T15:00:23.025Z,2.07
2019-01-06T15:03:10.173Z,2.20
2019-01-06T15:05:47.001Z,2.00
2019-01-06T15:08:32.599Z,2.30
2019-01-06T15:11:05.852Z,2.50
2019-01-06T15:13:42.064Z,2.20
2019-01-06T15:19:17.145Z,2.63
2019-01-06T15:21:56.698Z,2.33
2019-01-06T15:24:43.454Z,2.20
2019-01-06T15:27:32.096Z,2.60
2019-01-06T15:30:11.672Z,2.63
2019-01-06T15:32:48.358Z,2.60
2019-01-06T15:35:37.955Z,2.77
2019-01-06T15:38:08.424Z,2.57
2019-01-06T15:40:39.071Z,2.10
2019-01-06T15:43:27.785Z,2.90
2019-01-06T15:46:14.799Z,2.13
2019-01-06T15:48:45.174Z,2.33
2019-01-06T15:51:31.957Z,2.03
2019-01-06T15:54:19.416Z,2.43
2019-01-06T15:56:58.795Z,2.10
2019-01-06T15:59:46.430Z,2.50
2019-01-06T16:02:25.834Z,2.37
2019-01-06T16:04:59.097Z,3.30
2019-01-06T16:07:35.968Z,2.63
2019-01-06T16:10:24.726Z,2.70
2019-01-06T16:13:12.139Z,2.40
2019-01-06T16:15:58.703Z,2.83
2019-01-06T16:18:29.431Z,2.50
2019-01-06T16:21:14.779Z,2.07
2019-01-06T16:23:48.674Z,2.30
2019-01-06T16:29:43.070Z,2.30
2019-01-06T16:32:31.867Z,2.17
2019-01-06T16:35:14.432Z,2.20
2019-01-06T16:38:01.142Z,2.63
2019-01-06T16:40:32.550Z,2.30
2019-01-06T16:43:19.483Z,2.40
2019-01-06T16:46:05.450Z,2.10
2019-01-06T16:48:50.998Z,2.43
2019-01-06T16:51:21.588Z,2.13
2019-01-06T16:54:01.749Z,2.17
2019-01-06T16:56:53.867Z,2.20
2019-01-06T16:59:24.618Z,2.50
2019-01-06T17:04:43.893Z,2.20
2019-01-06T17:07:20.282Z,2.30
2019-01-06T17:09:54.128Z,2.27
2019-01-06T17:12:25.053Z,2.37
2019-01-06T17:14:56.140Z,1.93
2019-01-06T17:17:38.821Z,2.20
2019-01-06T17:20:15.087Z,1.97
2019-01-06T17:22:45.738Z,2.03
2019-01-06T17:25:19.555Z,2.27
2019-01-06T17:28:06.809Z,2.20
2019-01-06T17:30:46.485Z,2.40
2019-01-06T17:33:19.379Z,2.10
2019-01-06T17:36:08.343Z,2.10
2019-01-06T17:38:44.825Z,2.33
2019-01-06T17:41:21.465Z,1.93
2019-01-06T17:43:52.305Z,2.37
2019-01-06T17:46:32.763Z,2.10
2019-01-06T17:49:06.212Z,2.13
2019-01-06T17:51:36.371Z,2.00
2019-01-06T17:54:25.427Z,2.40
2019-01-06T17:57:08.371Z,2.40
2019-01-06T17:59:38.794Z,2.30
2019-01-06T18:02:11.964Z,2.40
2019-01-06T18:04:48.331Z,2.53
2019-01-06T18:07:21.739Z,2.27
2019-01-06T18:10:08.653Z,2.60
2019-01-06T18:12:39.423Z,2.17
2019-01-06T18:15:28.796Z,2.50
2019-01-06T18:17:59.548Z,2.27
2019-01-06T18:20:45.033Z,2.10
2019-01-06T18:23:24.563Z,2.07
2019-01-06T18:25:55.087Z,1.97
2019-01-06T18:28:25.727Z,2.23
2019-01-06T18:30:56.283Z,2.53
2019-01-06T18:33:29.651Z,2.87
2019-01-06T18:36:00.436Z,3.03
2019-01-06T18:38:31.150Z,2.83
2019-01-06T18:41:17.995Z,2.27
2019-01-06T18:43:54.595Z,2.40
2019-01-06T18:46:33.733Z,2.50
2019-01-06T18:49:22.751Z,2.33
2019-01-06T18:51:59.570Z,2.60
2019-01-06T18:54:30.264Z,2.50
2019-01-06T18:57:09.963Z,2.70
2019-01-06T18:59:49.769Z,2.40
2019-01-06T19:02:29.626Z,2.30
2019-01-06T19:05:12.819Z,2.50
2019-01-06T19:07:43.890Z,2.47
2019-01-06T19:10:18.025Z,2.63
2019-01-06T19:12:49.189Z,2.77
2019-01-06T19:18:40.255Z,3.70
2019-01-06T19:21:17.406Z,3.17
2019-01-06T19:23:56.902Z,2.83
2019-01-06T19:26:33.459Z,2.97
2019-01-06T19:29:20.182Z,2.77
2019-01-06T19:32:07.224Z,2.87
2019-01-06T19:34:37.897Z,2.97
2019-01-06T19:37:08.529Z,3.50
2019-01-06T19:39:55.805Z,3.33
2019-01-06T19:42:26.252Z,2.67
2019-01-06T19:45:11.833Z,3.10
2019-01-06T19:47:45.523Z,3.30
2019-01-06T19:50:25.308Z,3.53
2019-01-06T19:53:11.004Z,3.13
2019-01-06T19:55:56.919Z,3.00
2019-01-06T19:58:42.567Z,2.87
2019-01-06T20:01:25.100Z,3.27
2019-01-06T20:04:11.996Z,3.10
2019-01-06T20:06:58.625Z,2.77
2019-01-06T20:09:29.148Z,3.47
2019-01-06T20:12:16.150Z,3.00
2019-01-06T20:15:02.873Z,3.33
2019-01-06T20:17:33.212Z,3.53
2019-01-06T20:20:16.435Z,3.83
2019-01-06T20:22:49.894Z,4.20
2019-01-06T20:25:27.250Z,3.70
2019-01-06T20:27:57.399Z,4.07
2019-01-06T20:30:34.025Z,3.20
2019-01-06T20:33:11.851Z,3.67
2019-01-06T20:36:06.052Z,3.60
2019-01-06T20:38:53.073Z,2.77
2019-01-06T20:41:23.525Z,3.87
2019-01-06T20:44:10.856Z,4.10
2019-01-06T20:46:47.979Z,3.60
2019-01-06T20:49:21.848Z,3.30
2019-01-06T20:51:52.498Z,3.10
2019-01-06T20:54:26.079Z,3.20
2019-01-06T20:57:05.690Z,3.47
2019-01-06T20:59:53.093Z,3.67
2019-01-06T21:02:40.217Z,3.50
2019-01-06T21:05:13.563Z,3.10
2019-01-06T21:07:47.052Z,4.50
2019-01-06T21:10:20.843Z,3.63
2019-01-06T21:13:08.011Z,3.57
2019-01-06T21:15:55.982Z,3.90
2019-01-06T21:18:29.483Z,3.37
2019-01-06T21:21:02.959Z,3.47
2019-01-06T21:23:49.973Z,3.63
2019-01-06T21:26:26.681Z,3.63
2019-01-06T21:29:00.099Z,3.23
2019-01-06T21:31:47.299Z,3.47
2019-01-06T21:34:26.630Z,2.97
2019-01-06T21:37:00.544Z,3.80
2019-01-06T21:39:40.181Z,4.20
2019-01-06T21:42:16.575Z,3.93
2019-01-06T21:44:55.502Z,3.27
2019-01-06T21:47:26.122Z,3.77
2019-01-06T21:50:02.455Z,3.80
2019-01-06T21:52:53.497Z,3.70
2019-01-06T21:55:39.367Z,3.63
2019-01-06T21:58:19.519Z,4.13
2019-01-06T22:00:53.024Z,3.60
2019-01-06T22:03:23.930Z,3.97
2019-01-06T22:05:57.123Z,3.97
2019-01-06T22:08:50.059Z,4.47
2019-01-06T22:11:36.612Z,4.70
2019-01-06T22:14:07.797Z,4.03
2019-01-06T22:16:40.871Z,4.43
2019-01-06T22:19:14.530Z,4.13
2019-01-06T22:21:50.714Z,4.30
2019-01-06T22:24:24.144Z,4.27
2019-01-06T22:27:10.595Z,4.40
2019-01-06T22:29:50.241Z,4.47
2019-01-06T22:32:36.852Z,3.60
2019-01-06T22:35:11.455Z,4.33
2019-01-06T22:37:58.596Z,4.23
2019-01-06T22:40:29.451Z,4.30
2019-01-06T22:43:03.140Z,4.07
2019-01-06T22:45:33.738Z,4.57
2019-01-06T22:48:03.727Z,4.60
2019-01-06T22:50:39.945Z,4.13
2019-01-06T22:56:18.838Z,4.30
2019-01-06T22:58:52.310Z,4.60
2019-01-06T23:01:23.773Z,3.73
2019-01-06T23:04:06.586Z,3.80
2019-01-06T23:06:52.462Z,4.40
2019-01-06T23:09:39.791Z,4.27
2019-01-06T23:12:10.849Z,3.90
2019-01-06T23:14:41.361Z,4.50
2019-01-06T23:17:12.040Z,4.03
2019-01-06T23:19:49.305Z,4.37
2019-01-06T23:22:20.829Z,3.63
2019-01-06T23:24:54.022Z,4.27
2019-01-06T23:27:40.809Z,4.00
2019-01-06T23:30:19.761Z,3.73
2019-01-06T23:32:53.099Z,4.30
2019-01-06T23:35:25.013Z,3.90
2019-01-06T23:38:01.741Z,3.70
2019-01-06T23:40:32.241Z,4.47
2019-01-06T23:43:06.144Z,4.53
2019-01-06T23:45:52.819Z,4.33
2019-01-06T23:51:25.226Z,4.73
2019-01-06T23:53:55.755Z,3.80
2019-01-06T23:56:29.407Z,5.20
2019-01-06T23:59:16.596Z,4.77
